sensor_id;sensor_type;location;lat;lon;timestamp;P1;durP1;ratioP1;P2;durP2;ratioP2
18899;SDS011;9582;52.018;6.306;2023-02-21T00:01:57;26.07;;;17.93;;
18899;SDS011;9582;52.018;6.306;2023-02-21T00:04:41;25.87;;;15.90;;
18899;SDS011;9582;52.018;6.306;2023-02-21T00:07:31;30.20;;;19.53;;
18899;SDS011;9582;52.018;6.306;2023-02-21T00:10:23;27.53;;;17.17;;
18899;SDS011;9582;52.018;6.306;2023-02-21T00:13:12;30.37;;;19.67;;
18899;SDS011;9582;52.018;6.306;2023-02-21T00:16:02;31.10;;;20.43;;
18899;SDS011;9582;52.018;6.306;2023-02-21T00:18:55;29.83;;;20.73;;
18899;SDS011;9582;52.018;6.306;2023-02-21T00:21:43;33.97;;;21.10;;
18899;SDS011;9582;52.018;6.306;2023-02-21T00:24:28;27.23;;;16.70;;
18899;SDS011;9582;52.018;6.306;2023-02-21T00:27:14;28.03;;;17.93;;
18899;SDS011;9582;52.018;6.306;2023-02-21T00:29:58;32.23;;;21.77;;
18899;SDS011;9582;52.018;6.306;2023-02-21T00:32:47;30.10;;;16.80;;
18899;SDS011;9582;52.018;6.306;2023-02-21T00:35:33;31.33;;;19.20;;
18899;SDS011;9582;52.018;6.306;2023-02-21T00:38:17;30.83;;;19.30;;
18899;SDS011;9582;52.018;6.306;2023-02-21T00:41:06;36.63;;;22.63;;
18899;SDS011;9582;52.018;6.306;2023-02-21T00:43:53;29.70;;;18.93;;
18899;SDS011;9582;52.018;6.306;2023-02-21T00:46:37;34.83;;;21.70;;
18899;SDS011;9582;52.018;6.306;2023-02-21T00:49:33;29.33;;;20.47;;
18899;SDS011;9582;52.018;6.306;2023-02-21T00:52:19;28.93;;;17.50;;
18899;SDS011;9582;52.018;6.306;2023-02-21T00:55:03;31.63;;;20.97;;
18899;SDS011;9582;52.018;6.306;2023-02-21T00:57:52;30.97;;;16.77;;
18899;SDS011;9582;52.018;6.306;2023-02-21T01:00:36;29.60;;;17.00;;
18899;SDS011;9582;52.018;6.306;2023-02-21T01:03:22;33.20;;;22.27;;
18899;SDS011;9582;52.018;6.306;2023-02-21T01:06:08;36.57;;;22.33;;
18899;SDS011;9582;52.018;6.306;2023-02-21T01:08:52;36.87;;;22.10;;
18899;SDS011;9582;52.018;6.306;2023-02-21T01:11:40;36.27;;;22.17;;
18899;SDS011;9582;52.018;6.306;2023-02-21T01:14:26;36.80;;;21.13;;
18899;SDS011;9582;52.018;6.306;2023-02-21T01:17:12;37.20;;;23.73;;
18899;SDS011;9582;52.018;6.306;2023-02-21T01:20:01;40.97;;;24.07;;
18899;SDS011;9582;52.018;6.306;2023-02-21T01:22:45;32.90;;;17.17;;
18899;SDS011;9582;52.018;6.306;2023-02-21T01:25:29;36.77;;;21.77;;
18899;SDS011;9582;52.018;6.306;2023-02-21T01:28:16;37.80;;;22.57;;
18899;SDS011;9582;52.018;6.306;2023-02-21T01:31:04;37.60;;;21.13;;
18899;SDS011;9582;52.018;6.306;2023-02-21T01:33:48;40.33;;;24.83;;
18899;SDS011;9582;52.018;6.306;2023-02-21T01:36:32;37.57;;;19.43;;
18899;SDS011;9582;52.018;6.306;2023-02-21T01:39:31;38.73;;;21.63;;
18899;SDS011;9582;52.018;6.306;2023-02-21T01:42:20;41.57;;;22.27;;
18899;SDS011;9582;52.018;6.306;2023-02-21T01:45:33;34.33;;;20.50;;
18899;SDS011;9582;52.018;6.306;2023-02-21T06:41:36;94.03;;;32.00;;
18899;SDS011;9582;52.018;6.306;2023-02-21T06:44:03;93.47;;;33.30;;
18899;SDS011;9582;52.018;6.306;2023-02-21T06:46:32;94.73;;;32.93;;
18899;SDS011;9582;52.018;6.306;2023-02-21T06:49:04;99.90;;;33.43;;
18899;SDS011;9582;52.018;6.306;2023-02-21T06:51:33;101.30;;;33.40;;
18899;SDS011;9582;52.018;6.306;2023-02-21T06:54:06;112.23;;;36.10;;
18899;SDS011;9582;52.018;6.306;2023-02-21T06:56:36;123.70;;;37.23;;
18899;SDS011;9582;52.018;6.306;2023-02-21T06:59:09;103.97;;;33.90;;
18899;SDS011;9582;52.018;6.306;2023-02-21T07:01:37;95.20;;;31.57;;
18899;SDS011;9582;52.018;6.306;2023-02-21T07:04:17;128.00;;;37.37;;
18899;SDS011;9582;52.018;6.306;2023-02-21T07:06:44;123.27;;;37.70;;
18899;SDS011;9582;52.018;6.306;2023-02-21T07:09:10;133.00;;;37.33;;
18899;SDS011;9582;52.018;6.306;2023-02-21T07:11:40;114.17;;;34.97;;
18899;SDS011;9582;52.018;6.306;2023-02-21T07:14:11;86.50;;;27.93;;
18899;SDS011;9582;52.018;6.306;2023-02-21T07:16:47;91.70;;;31.43;;
18899;SDS011;9582;52.018;6.306;2023-02-21T07:19:21;129.43;;;35.60;;
18899;SDS011;9582;52.018;6.306;2023-02-21T07:21:49;145.70;;;38.30;;
18899;SDS011;9582;52.018;6.306;2023-02-21T07:24:18;121.90;;;36.00;;
18899;SDS011;9582;52.018;6.306;2023-02-21T07:26:46;98.37;;;29.83;;
18899;SDS011;9582;52.018;6.306;2023-02-21T07:29:12;111.33;;;34.00;;
18899;SDS011;9582;52.018;6.306;2023-02-21T07:31:44;141.13;;;36.27;;
18899;SDS011;9582;52.018;6.306;2023-02-21T07:34:17;127.40;;;35.90;;
18899;SDS011;9582;52.018;6.306;2023-02-21T08:23:10;191.40;;;40.67;;
18899;SDS011;9582;52.018;6.306;2023-02-21T08:25:37;155.73;;;36.77;;
18899;SDS011;9582;52.018;6.306;2023-02-21T08:28:04;97.40;;;27.97;;
18899;SDS011;9582;52.018;6.306;2023-02-21T08:30:31;130.33;;;33.40;;
18899;SDS011;9582;52.018;6.306;2023-02-21T08:32:57;100.53;;;27.67;;
18899;SDS011;9582;52.018;6.306;2023-02-21T08:35:24;138.13;;;33.40;;
18899;SDS011;9582;52.018;6.306;2023-02-21T08:37:50;129.20;;;33.67;;
18899;SDS011;9582;52.018;6.306;2023-02-21T08:40:22;115.20;;;31.40;;
18899;SDS011;9582;52.018;6.306;2023-02-21T08:42:49;117.90;;;30.90;;
18899;SDS011;9582;52.018;6.306;2023-02-21T08:45:17;120.60;;;31.63;;
18899;SDS011;9582;52.018;6.306;2023-02-21T08:47:46;91.53;;;25.57;;
18899;SDS011;9582;52.018;6.306;2023-02-21T08:50:13;111.17;;;28.93;;
18899;SDS011;9582;52.018;6.306;2023-02-21T08:52:39;100.00;;;28.03;;
18899;SDS011;9582;52.018;6.306;2023-02-21T08:55:06;105.70;;;28.13;;
18899;SDS011;9582;52.018;6.306;2023-02-21T08:57:34;112.90;;;30.33;;
18899;SDS011;9582;52.018;6.306;2023-02-21T09:00:01;104.87;;;28.07;;
18899;SDS011;9582;52.018;6.306;2023-02-21T09:02:30;107.60;;;29.87;;
18899;SDS011;9582;52.018;6.306;2023-02-21T09:04:57;90.30;;;26.47;;
18899;SDS011;9582;52.018;6.306;2023-02-21T09:07:24;81.87;;;26.30;;
18899;SDS011;9582;52.018;6.306;2023-02-21T09:09:52;102.13;;;28.57;;
18899;SDS011;9582;52.018;6.306;2023-02-21T09:12:19;82.37;;;26.33;;
18899;SDS011;9582;52.018;6.306;2023-02-21T09:14:47;93.10;;;26.93;;
18899;SDS011;9582;52.018;6.306;2023-02-21T09:17:13;85.57;;;25.73;;
18899;SDS011;9582;52.018;6.306;2023-02-21T09:19:40;79.97;;;25.10;;
18899;SDS011;9582;52.018;6.306;2023-02-21T09:22:07;84.13;;;25.30;;
18899;SDS011;9582;52.018;6.306;2023-02-21T09:24:34;87.87;;;27.07;;
18899;SDS011;9582;52.018;6.306;2023-02-21T09:27:02;99.43;;;27.57;;
18899;SDS011;9582;52.018;6.306;2023-02-21T09:29:30;87.90;;;27.83;;
18899;SDS011;9582;52.018;6.306;2023-02-21T09:31:59;95.40;;;30.13;;
18899;SDS011;9582;52.018;6.306;2023-02-21T09:34:26;78.20;;;25.17;;
18899;SDS011;9582;52.018;6.306;2023-02-21T09:36:53;81.57;;;27.37;;
18899;SDS011;9582;52.018;6.306;2023-02-21T09:39:20;84.80;;;28.43;;
18899;SDS011;9582;52.018;6.306;2023-02-21T09:41:47;67.30;;;21.83;;
18899;SDS011;9582;52.018;6.306;2023-02-21T09:44:16;75.27;;;24.60;;
18899;SDS011;9582;52.018;6.306;2023-02-21T09:46:46;83.87;;;27.63;;
18899;SDS011;9582;52.018;6.306;2023-02-21T09:49:23;96.53;;;28.90;;
18899;SDS011;9582;52.018;6.306;2023-02-21T09:51:52;78.60;;;26.20;;
18899;SDS011;9582;52.018;6.306;2023-02-21T09:54:22;94.37;;;29.30;;
18899;SDS011;9582;52.018;6.306;2023-02-21T09:56:50;88.90;;;29.37;;
18899;SDS011;9582;52.018;6.306;2023-02-21T09:59:17;84.27;;;28.30;;
18899;SDS011;9582;52.018;6.306;2023-02-21T10:01:46;85.97;;;27.90;;
18899;SDS011;9582;52.018;6.306;2023-02-21T10:04:25;73.87;;;23.60;;
18899;SDS011;9582;52.018;6.306;2023-02-21T10:07:04;80.17;;;26.03;;
18899;SDS011;9582;52.018;6.306;2023-02-21T10:09:37;76.63;;;24.70;;
18899;SDS011;9582;52.018;6.306;2023-02-21T10:12:12;60.17;;;23.73;;
18899;SDS011;9582;52.018;6.306;2023-02-21T10:15:07;57.17;;;21.23;;
18899;SDS011;9582;52.018;6.306;2023-02-21T10:17:48;60.50;;;21.40;;
18899;SDS011;9582;52.018;6.306;2023-02-21T10:20:22;59.60;;;23.33;;
18899;SDS011;9582;52.018;6.306;2023-02-21T10:22:56;59.07;;;21.90;;
18899;SDS011;9582;52.018;6.306;2023-02-21T10:25:24;60.77;;;21.07;;
18899;SDS011;9582;52.018;6.306;2023-02-21T10:27:53;61.00;;;21.83;;
18899;SDS011;9582;52.018;6.306;2023-02-21T10:30:25;53.23;;;21.10;;
18899;SDS011;9582;52.018;6.306;2023-02-21T10:32:54;50.07;;;20.43;;
18899;SDS011;9582;52.018;6.306;2023-02-21T10:35:23;53.07;;;21.10;;
18899;SDS011;9582;52.018;6.306;2023-02-21T10:37:51;49.87;;;20.37;;
18899;SDS011;9582;52.018;6.306;2023-02-21T10:40:23;50.33;;;21.17;;
18899;SDS011;9582;52.018;6.306;2023-02-21T10:43:00;46.93;;;19.37;;
18899;SDS011;9582;52.018;6.306;2023-02-21T10:45:33;50.70;;;20.00;;
18899;SDS011;9582;52.018;6.306;2023-02-21T10:48:03;38.47;;;18.43;;
18899;SDS011;9582;52.018;6.306;2023-02-21T10:50:37;42.63;;;18.53;;
18899;SDS011;9582;52.018;6.306;2023-02-21T10:53:22;48.83;;;20.70;;
18899;SDS011;9582;52.018;6.306;2023-02-21T10:56:05;40.30;;;17.87;;
18899;SDS011;9582;52.018;6.306;2023-02-21T10:58:33;44.57;;;18.23;;
18899;SDS011;9582;52.018;6.306;2023-02-21T11:01:09;42.53;;;18.83;;
18899;SDS011;9582;52.018;6.306;2023-02-21T11:03:41;52.37;;;21.90;;
18899;SDS011;9582;52.018;6.306;2023-02-21T11:06:10;44.17;;;20.33;;
18899;SDS011;9582;52.018;6.306;2023-02-21T11:08:47;51.47;;;22.17;;
18899;SDS011;9582;52.018;6.306;2023-02-21T11:11:13;53.87;;;21.43;;
18899;SDS011;9582;52.018;6.306;2023-02-21T11:13:40;44.10;;;19.03;;
18899;SDS011;9582;52.018;6.306;2023-02-21T11:16:09;51.87;;;20.23;;
18899;SDS011;9582;52.018;6.306;2023-02-21T11:18:37;44.43;;;19.60;;
18899;SDS011;9582;52.018;6.306;2023-02-21T11:21:10;49.47;;;20.17;;
18899;SDS011;9582;52.018;6.306;2023-02-21T11:23:42;40.30;;;17.33;;
18899;SDS011;9582;52.018;6.306;2023-02-21T11:26:12;42.27;;;18.47;;
18899;SDS011;9582;52.018;6.306;2023-02-21T11:28:41;47.33;;;19.43;;
18899;SDS011;9582;52.018;6.306;2023-02-21T11:31:17;44.90;;;19.20;;
18899;SDS011;9582;52.018;6.306;2023-02-21T11:33:54;41.03;;;17.30;;
18899;SDS011;9582;52.018;6.306;2023-02-21T11:36:27;44.40;;;19.13;;
18899;SDS011;9582;52.018;6.306;2023-02-21T11:38:59;41.87;;;18.70;;
18899;SDS011;9582;52.018;6.306;2023-02-21T11:41:34;45.77;;;18.57;;
18899;SDS011;9582;52.018;6.306;2023-02-21T11:44:17;46.50;;;20.23;;
18899;SDS011;9582;52.018;6.306;2023-02-21T11:46:49;46.07;;;19.23;;
18899;SDS011;9582;52.018;6.306;2023-02-21T11:49:22;49.73;;;20.40;;
18899;SDS011;9582;52.018;6.306;2023-02-21T11:52:05;47.73;;;19.33;;
18899;SDS011;9582;52.018;6.306;2023-02-21T11:54:34;45.53;;;19.10;;
18899;SDS011;9582;52.018;6.306;2023-02-21T11:57:02;52.50;;;20.67;;
18899;SDS011;9582;52.018;6.306;2023-02-21T11:59:34;50.13;;;20.03;;
18899;SDS011;9582;52.018;6.306;2023-02-21T12:02:20;38.83;;;16.17;;
18899;SDS011;9582;52.018;6.306;2023-02-21T12:05:15;45.07;;;16.90;;
18899;SDS011;9582;52.018;6.306;2023-02-21T12:07:53;41.67;;;18.40;;
18899;SDS011;9582;52.018;6.306;2023-02-21T12:10:33;41.67;;;16.93;;
18899;SDS011;9582;52.018;6.306;2023-02-21T12:13:11;37.80;;;15.80;;
18899;SDS011;9582;52.018;6.306;2023-02-21T12:15:49;32.20;;;14.07;;
18899;SDS011;9582;52.018;6.306;2023-02-21T12:18:24;28.90;;;12.40;;
18899;SDS011;9582;52.018;6.306;2023-02-21T12:21:10;25.43;;;11.87;;
18899;SDS011;9582;52.018;6.306;2023-02-21T12:23:46;28.03;;;12.30;;
18899;SDS011;9582;52.018;6.306;2023-02-21T12:26:24;24.07;;;11.27;;
18899;SDS011;9582;52.018;6.306;2023-02-21T12:29:02;29.00;;;11.87;;
18899;SDS011;9582;52.018;6.306;2023-02-21T12:31:44;23.60;;;10.60;;
18899;SDS011;9582;52.018;6.306;2023-02-21T12:34:30;26.13;;;11.80;;
18899;SDS011;9582;52.018;6.306;2023-02-21T12:37:16;25.47;;;11.97;;
18899;SDS011;9582;52.018;6.306;2023-02-21T12:39:55;26.47;;;12.10;;
18899;SDS011;9582;52.018;6.306;2023-02-21T12:42:40;19.93;;;11.30;;
18899;SDS011;9582;52.018;6.306;2023-02-21T12:45:32;24.57;;;12.67;;
18899;SDS011;9582;52.018;6.306;2023-02-21T12:48:09;28.40;;;14.43;;
18899;SDS011;9582;52.018;6.306;2023-02-21T12:50:42;31.33;;;14.80;;
18899;SDS011;9582;52.018;6.306;2023-02-21T12:53:14;30.17;;;15.30;;
18899;SDS011;9582;52.018;6.306;2023-02-21T12:55:46;33.97;;;16.03;;
18899;SDS011;9582;52.018;6.306;2023-02-21T12:58:17;37.93;;;16.10;;
18899;SDS011;9582;52.018;6.306;2023-02-21T13:00:52;33.43;;;16.27;;
18899;SDS011;9582;52.018;6.306;2023-02-21T13:03:30;31.20;;;14.87;;
18899;SDS011;9582;52.018;6.306;2023-02-21T13:06:02;34.40;;;16.00;;
18899;SDS011;9582;52.018;6.306;2023-02-21T13:08:43;23.97;;;11.70;;
18899;SDS011;9582;52.018;6.306;2023-02-21T13:11:20;26.97;;;13.13;;
18899;SDS011;9582;52.018;6.306;2023-02-21T13:13:50;28.97;;;13.67;;
18899;SDS011;9582;52.018;6.306;2023-02-21T13:16:17;28.40;;;12.67;;
18899;SDS011;9582;52.018;6.306;2023-02-21T13:18:45;25.97;;;13.10;;
18899;SDS011;9582;52.018;6.306;2023-02-21T13:21:16;20.70;;;10.90;;
18899;SDS011;9582;52.018;6.306;2023-02-21T13:23:56;21.13;;;11.03;;
18899;SDS011;9582;52.018;6.306;2023-02-21T13:27:25;19.07;;;9.60;;
18899;SDS011;9582;52.018;6.306;2023-02-21T13:30:01;21.60;;;10.20;;
18899;SDS011;9582;52.018;6.306;2023-02-21T13:32:36;20.67;;;10.13;;
18899;SDS011;9582;52.018;6.306;2023-02-21T13:35:04;21.63;;;10.53;;
18899;SDS011;9582;52.018;6.306;2023-02-21T13:37:34;21.03;;;10.33;;
18899;SDS011;9582;52.018;6.306;2023-02-21T13:40:15;21.43;;;9.57;;
18899;SDS011;9582;52.018;6.306;2023-02-21T13:42:48;22.83;;;11.07;;
18899;SDS011;9582;52.018;6.306;2023-02-21T13:45:26;22.47;;;10.63;;
18899;SDS011;9582;52.018;6.306;2023-02-21T13:50:46;21.17;;;10.23;;
18899;SDS011;9582;52.018;6.306;2023-02-21T13:53:14;20.07;;;10.57;;
18899;SDS011;9582;52.018;6.306;2023-02-21T13:58:52;17.40;;;8.70;;
18899;SDS011;9582;52.018;6.306;2023-02-21T14:01:59;21.47;;;10.70;;
18899;SDS011;9582;52.018;6.306;2023-02-21T14:05:01;22.07;;;10.40;;
18899;SDS011;9582;52.018;6.306;2023-02-21T14:07:47;20.87;;;10.50;;
18899;SDS011;9582;52.018;6.306;2023-02-21T14:10:25;20.03;;;10.27;;
18899;SDS011;9582;52.018;6.306;2023-02-21T14:12:57;20.27;;;10.60;;
18899;SDS011;9582;52.018;6.306;2023-02-21T14:15:37;23.23;;;10.93;;
18899;SDS011;9582;52.018;6.306;2023-02-21T14:18:13;19.57;;;10.10;;
18899;SDS011;9582;52.018;6.306;2023-02-21T14:20:44;25.43;;;10.90;;
18899;SDS011;9582;52.018;6.306;2023-02-21T14:23:14;23.70;;;11.33;;
18899;SDS011;9582;52.018;6.306;2023-02-21T14:25:42;20.87;;;11.03;;
18899;SDS011;9582;52.018;6.306;2023-02-21T14:34:24;28.90;;;12.67;;
18899;SDS011;9582;52.018;6.306;2023-02-21T14:36:56;31.50;;;13.83;;
18899;SDS011;9582;52.018;6.306;2023-02-21T14:39:30;26.67;;;14.30;;
18899;SDS011;9582;52.018;6.306;2023-02-21T14:42:04;28.80;;;13.90;;
18899;SDS011;9582;52.018;6.306;2023-02-21T14:44:47;29.47;;;14.87;;
18899;SDS011;9582;52.018;6.306;2023-02-21T14:47:35;28.73;;;14.50;;
18899;SDS011;9582;52.018;6.306;2023-02-21T14:50:31;29.97;;;14.87;;
18899;SDS011;9582;52.018;6.306;2023-02-21T14:53:16;25.57;;;14.33;;
18899;SDS011;9582;52.018;6.306;2023-02-21T14:59:17;26.63;;;14.53;;
18899;SDS011;9582;52.018;6.306;2023-02-21T15:01:57;31.00;;;17.20;;
18899;SDS011;9582;52.018;6.306;2023-02-21T15:04:33;32.47;;;17.10;;
18899;SDS011;9582;52.018;6.306;2023-02-21T15:07:09;27.83;;;15.37;;
18899;SDS011;9582;52.018;6.306;2023-02-21T15:09:43;34.03;;;17.53;;
18899;SDS011;9582;52.018;6.306;2023-02-21T15:12:12;28.23;;;15.73;;
18899;SDS011;9582;52.018;6.306;2023-02-21T15:14:40;27.07;;;13.43;;
18899;SDS011;9582;52.018;6.306;2023-02-21T15:17:15;26.90;;;13.97;;
18899;SDS011;9582;52.018;6.306;2023-02-21T15:19:46;26.57;;;13.70;;
18899;SDS011;9582;52.018;6.306;2023-02-21T15:22:26;29.17;;;15.63;;
18899;SDS011;9582;52.018;6.306;2023-02-21T15:24:57;25.87;;;14.20;;
18899;SDS011;9582;52.018;6.306;2023-02-21T15:27:24;28.37;;;14.00;;
18899;SDS011;9582;52.018;6.306;2023-02-21T15:30:02;27.47;;;14.27;;
18899;SDS011;9582;52.018;6.306;2023-02-21T15:32:30;28.60;;;14.33;;
18899;SDS011;9582;52.018;6.306;2023-02-21T15:34:59;25.13;;;14.00;;
18899;SDS011;9582;52.018;6.306;2023-02-21T15:37:30;27.77;;;14.77;;
18899;SDS011;9582;52.018;6.306;2023-02-21T15:39:59;26.77;;;15.80;;
18899;SDS011;9582;52.018;6.306;2023-02-21T15:42:36;25.70;;;14.50;;
18899;SDS011;9582;52.018;6.306;2023-02-21T15:45:06;28.80;;;15.17;;
18899;SDS011;9582;52.018;6.306;2023-02-21T15:47:36;28.43;;;15.47;;
18899;SDS011;9582;52.018;6.306;2023-02-21T15:50:06;27.77;;;15.00;;
18899;SDS011;9582;52.018;6.306;2023-02-21T15:52:37;29.50;;;14.83;;
18899;SDS011;9582;52.018;6.306;2023-02-21T15:55:12;26.27;;;14.33;;
18899;SDS011;9582;52.018;6.306;2023-02-21T15:57:40;28.13;;;15.33;;
18899;SDS011;9582;52.018;6.306;2023-02-21T16:00:17;29.07;;;15.77;;
18899;SDS011;9582;52.018;6.306;2023-02-21T16:02:47;31.17;;;15.73;;
18899;SDS011;9582;52.018;6.306;2023-02-21T16:05:26;31.50;;;16.60;;
18899;SDS011;9582;52.018;6.306;2023-02-21T16:07:58;30.63;;;15.90;;
18899;SDS011;9582;52.018;6.306;2023-02-21T16:10:28;30.03;;;15.50;;
18899;SDS011;9582;52.018;6.306;2023-02-21T16:12:55;29.43;;;16.57;;
18899;SDS011;9582;52.018;6.306;2023-02-21T16:15:25;33.07;;;16.23;;
18899;SDS011;9582;52.018;6.306;2023-02-21T16:17:54;33.47;;;16.33;;
18899;SDS011;9582;52.018;6.306;2023-02-21T16:20:26;31.07;;;16.20;;
18899;SDS011;9582;52.018;6.306;2023-02-21T16:23:11;29.80;;;16.10;;
18899;SDS011;9582;52.018;6.306;2023-02-21T16:25:53;34.70;;;17.20;;
18899;SDS011;9582;52.018;6.306;2023-02-21T16:28:24;32.77;;;16.03;;
18899;SDS011;9582;52.018;6.306;2023-02-21T16:30:51;35.20;;;17.30;;
18899;SDS011;9582;52.018;6.306;2023-02-21T16:33:19;36.83;;;17.73;;
18899;SDS011;9582;52.018;6.306;2023-02-21T16:35:48;36.53;;;18.13;;
18899;SDS011;9582;52.018;6.306;2023-02-21T16:38:17;36.93;;;17.90;;
18899;SDS011;9582;52.018;6.306;2023-02-21T16:40:45;34.90;;;18.37;;
18899;SDS011;9582;52.018;6.306;2023-02-21T16:43:14;41.03;;;19.77;;
18899;SDS011;9582;52.018;6.306;2023-02-21T16:45:42;39.60;;;18.13;;
18899;SDS011;9582;52.018;6.306;2023-02-21T16:48:12;36.73;;;19.17;;
18899;SDS011;9582;52.018;6.306;2023-02-21T16:50:41;37.43;;;19.67;;
18899;SDS011;9582;52.018;6.306;2023-02-21T16:53:10;36.30;;;20.17;;
18899;SDS011;9582;52.018;6.306;2023-02-21T16:55:37;39.67;;;19.57;;
18899;SDS011;9582;52.018;6.306;2023-02-21T16:58:05;37.07;;;19.40;;
18899;SDS011;9582;52.018;6.306;2023-02-21T17:00:33;38.20;;;19.10;;
18899;SDS011;9582;52.018;6.306;2023-02-21T17:03:00;44.87;;;20.33;;
18899;SDS011;9582;52.018;6.306;2023-02-21T17:05:26;39.93;;;19.80;;
18899;SDS011;9582;52.018;6.306;2023-02-21T17:07:53;39.53;;;19.57;;
18899;SDS011;9582;52.018;6.306;2023-02-21T17:10:22;41.13;;;20.90;;
18899;SDS011;9582;52.018;6.306;2023-02-21T17:12:49;43.83;;;21.40;;
18899;SDS011;9582;52.018;6.306;2023-02-21T17:15:16;42.57;;;22.00;;
18899;SDS011;9582;52.018;6.306;2023-02-21T17:17:43;48.27;;;21.20;;
18899;SDS011;9582;52.018;6.306;2023-02-21T17:20:13;44.57;;;21.87;;
18899;SDS011;9582;52.018;6.306;2023-02-21T17:22:41;40.10;;;21.80;;
18899;SDS011;9582;52.018;6.306;2023-02-21T17:25:07;43.03;;;20.87;;
18899;SDS011;9582;52.018;6.306;2023-02-21T17:27:35;42.83;;;21.57;;
18899;SDS011;9582;52.018;6.306;2023-02-21T17:30:03;42.50;;;21.03;;
18899;SDS011;9582;52.018;6.306;2023-02-21T17:32:30;47.40;;;21.90;;
18899;SDS011;9582;52.018;6.306;2023-02-21T17:34:57;47.73;;;21.37;;
18899;SDS011;9582;52.018;6.306;2023-02-21T17:37:23;39.60;;;20.83;;
18899;SDS011;9582;52.018;6.306;2023-02-21T17:39:50;40.27;;;20.13;;
18899;SDS011;9582;52.018;6.306;2023-02-21T17:42:17;47.80;;;21.40;;
18899;SDS011;9582;52.018;6.306;2023-02-21T17:44:45;47.03;;;21.23;;
18899;SDS011;9582;52.018;6.306;2023-02-21T17:47:12;44.93;;;21.50;;
18899;SDS011;9582;52.018;6.306;2023-02-21T17:49:39;47.67;;;21.50;;
18899;SDS011;9582;52.018;6.306;2023-02-21T17:52:05;52.27;;;21.50;;
18899;SDS011;9582;52.018;6.306;2023-02-21T17:54:32;51.33;;;22.33;;
18899;SDS011;9582;52.018;6.306;2023-02-21T17:56:58;45.43;;;22.00;;
18899;SDS011;9582;52.018;6.306;2023-02-21T17:59:25;46.53;;;20.73;;
18899;SDS011;9582;52.018;6.306;2023-02-21T18:01:53;47.53;;;21.23;;
18899;SDS011;9582;52.018;6.306;2023-02-21T18:04:20;51.03;;;22.37;;
18899;SDS011;9582;52.018;6.306;2023-02-21T18:06:48;50.10;;;22.03;;
18899;SDS011;9582;52.018;6.306;2023-02-21T18:09:15;49.83;;;22.07;;
18899;SDS011;9582;52.018;6.306;2023-02-21T18:11:46;45.70;;;20.90;;
18899;SDS011;9582;52.018;6.306;2023-02-21T18:14:13;44.70;;;20.23;;
18899;SDS011;9582;52.018;6.306;2023-02-21T18:16:40;43.10;;;21.20;;
18899;SDS011;9582;52.018;6.306;2023-02-21T18:19:07;45.93;;;21.97;;
18899;SDS011;9582;52.018;6.306;2023-02-21T18:21:34;48.00;;;20.93;;
18899;SDS011;9582;52.018;6.306;2023-02-21T18:24:05;47.17;;;19.70;;
18899;SDS011;9582;52.018;6.306;2023-02-21T18:26:32;46.70;;;19.80;;
18899;SDS011;9582;52.018;6.306;2023-02-21T18:28:59;47.57;;;19.37;;
18899;SDS011;9582;52.018;6.306;2023-02-21T18:31:25;43.50;;;20.13;;
18899;SDS011;9582;52.018;6.306;2023-02-21T18:33:52;44.80;;;20.73;;
18899;SDS011;9582;52.018;6.306;2023-02-21T18:36:20;53.30;;;20.43;;
18899;SDS011;9582;52.018;6.306;2023-02-21T18:38:47;47.63;;;20.10;;
18899;SDS011;9582;52.018;6.306;2023-02-21T18:41:15;47.13;;;21.23;;
18899;SDS011;9582;52.018;6.306;2023-02-21T18:43:44;44.33;;;20.00;;
18899;SDS011;9582;52.018;6.306;2023-02-21T18:46:12;45.87;;;20.50;;
18899;SDS011;9582;52.018;6.306;2023-02-21T18:48:40;44.23;;;19.93;;
18899;SDS011;9582;52.018;6.306;2023-02-21T18:51:08;47.33;;;21.33;;
18899;SDS011;9582;52.018;6.306;2023-02-21T18:53:37;43.90;;;20.30;;
18899;SDS011;9582;52.018;6.306;2023-02-21T18:56:06;48.07;;;20.60;;
18899;SDS011;9582;52.018;6.306;2023-02-21T18:58:34;47.70;;;20.50;;
18899;SDS011;9582;52.018;6.306;2023-02-21T19:01:01;51.40;;;20.83;;
18899;SDS011;9582;52.018;6.306;2023-02-21T19:03:27;51.87;;;21.30;;
18899;SDS011;9582;52.018;6.306;2023-02-21T19:05:54;48.87;;;20.47;;
18899;SDS011;9582;52.018;6.306;2023-02-21T19:08:20;48.17;;;20.47;;
18899;SDS011;9582;52.018;6.306;2023-02-21T19:10:48;48.53;;;20.00;;
18899;SDS011;9582;52.018;6.306;2023-02-21T19:13:16;44.57;;;19.67;;
18899;SDS011;9582;52.018;6.306;2023-02-21T19:15:43;45.67;;;19.70;;
18899;SDS011;9582;52.018;6.306;2023-02-21T19:18:10;44.50;;;19.50;;
18899;SDS011;9582;52.018;6.306;2023-02-21T19:20:37;45.10;;;19.83;;
18899;SDS011;9582;52.018;6.306;2023-02-21T19:23:04;51.03;;;20.27;;
18899;SDS011;9582;52.018;6.306;2023-02-21T19:25:31;43.97;;;20.73;;
18899;SDS011;9582;52.018;6.306;2023-02-21T19:27:59;45.37;;;19.27;;
18899;SDS011;9582;52.018;6.306;2023-02-21T19:30:26;40.67;;;18.73;;
18899;SDS011;9582;52.018;6.306;2023-02-21T19:32:56;47.03;;;19.70;;
18899;SDS011;9582;52.018;6.306;2023-02-21T19:35:24;47.33;;;19.97;;
18899;SDS011;9582;52.018;6.306;2023-02-21T19:37:51;44.70;;;18.77;;
18899;SDS011;9582;52.018;6.306;2023-02-21T19:40:17;43.47;;;19.53;;
18899;SDS011;9582;52.018;6.306;2023-02-21T19:42:44;44.33;;;19.83;;
18899;SDS011;9582;52.018;6.306;2023-02-21T19:45:13;48.83;;;20.33;;
18899;SDS011;9582;52.018;6.306;2023-02-21T19:47:40;46.53;;;20.07;;
18899;SDS011;9582;52.018;6.306;2023-02-21T19:50:07;41.70;;;18.13;;
18899;SDS011;9582;52.018;6.306;2023-02-21T19:52:34;41.33;;;18.20;;
18899;SDS011;9582;52.018;6.306;2023-02-21T19:55:00;41.50;;;18.77;;
18899;SDS011;9582;52.018;6.306;2023-02-21T19:57:27;45.37;;;18.87;;
18899;SDS011;9582;52.018;6.306;2023-02-21T19:59:54;47.27;;;20.50;;
18899;SDS011;9582;52.018;6.306;2023-02-21T20:02:21;46.60;;;21.23;;
18899;SDS011;9582;52.018;6.306;2023-02-21T20:04:48;46.23;;;21.40;;
18899;SDS011;9582;52.018;6.306;2023-02-21T20:07:15;52.57;;;24.10;;
18899;SDS011;9582;52.018;6.306;2023-02-21T20:09:42;49.47;;;23.47;;
18899;SDS011;9582;52.018;6.306;2023-02-21T20:12:11;54.97;;;24.17;;
18899;SDS011;9582;52.018;6.306;2023-02-21T20:14:37;52.03;;;23.37;;
18899;SDS011;9582;52.018;6.306;2023-02-21T20:17:09;54.87;;;22.43;;
18899;SDS011;9582;52.018;6.306;2023-02-21T20:19:38;59.30;;;23.83;;
18899;SDS011;9582;52.018;6.306;2023-02-21T20:22:04;60.20;;;23.83;;
18899;SDS011;9582;52.018;6.306;2023-02-21T20:24:31;60.03;;;24.50;;
18899;SDS011;9582;52.018;6.306;2023-02-21T20:26:57;58.77;;;23.73;;
18899;SDS011;9582;52.018;6.306;2023-02-21T20:29:23;59.03;;;23.60;;
18899;SDS011;9582;52.018;6.306;2023-02-21T20:31:51;59.17;;;23.67;;
18899;SDS011;9582;52.018;6.306;2023-02-21T20:34:18;61.90;;;24.10;;
18899;SDS011;9582;52.018;6.306;2023-02-21T20:36:47;63.27;;;25.63;;
18899;SDS011;9582;52.018;6.306;2023-02-21T20:39:17;55.67;;;26.03;;
18899;SDS011;9582;52.018;6.306;2023-02-21T20:41:46;57.60;;;25.27;;
18899;SDS011;9582;52.018;6.306;2023-02-21T20:44:13;60.00;;;25.40;;
18899;SDS011;9582;52.018;6.306;2023-02-21T20:46:40;56.63;;;24.67;;
18899;SDS011;9582;52.018;6.306;2023-02-21T20:49:08;62.93;;;25.93;;
18899;SDS011;9582;52.018;6.306;2023-02-21T20:51:38;54.77;;;24.33;;
18899;SDS011;9582;52.018;6.306;2023-02-21T20:54:07;64.17;;;24.47;;
18899;SDS011;9582;52.018;6.306;2023-02-21T20:56:35;57.10;;;24.33;;
18899;SDS011;9582;52.018;6.306;2023-02-21T20:59:05;67.47;;;26.50;;
18899;SDS011;9582;52.018;6.306;2023-02-21T21:01:39;55.87;;;25.93;;
18899;SDS011;9582;52.018;6.306;2023-02-21T21:04:12;59.50;;;25.10;;